Terminal Aerodrome Forecast
Issued by NWS Twin Cities, MN

Home | Current Version | Previous Version | Graphics & Text | Print | Product List | Glossary On
Versions: 1 2 3 4 5 6 7 8 9 10 11 12 13 14 15 16 17 18 19 20 21 22
000
FTUS43 KMPX 191128
TAFSTC
TAF
KSTC 191128Z 1912/2012 12004KT P6SM BKN250
      TEMPO 1912/1914 4SM BR
     FM191600 13009KT P6SM BKN250
     FM200200 14008KT 6SM BR OVC250 WS016/18042KT
     FM200900 15010KT 3SM BR OVC011 WS020/20046KT=

USA.gov is the U.S. government's official web portal to all federal, state and local government web resources and services.